Time;durP1;ratioP1;P1;durP2;ratioP2;P2;SDS_P1;SDS_P2;PMS_P1;PMS_P2;Temp;Humidity;BMP_temperature;BMP_pressure;BME280_temperature;BME280_humidity;BME280_pressure;Samples;Min_cycle;Max_cycle;Signal;HPM_P1;HPM_P2
2021/03/25 00:00:56;;;;;;;10.50;7.07;;;1.80;99.90;;;;;;5020615;28;20475;-72
2021/03/25 00:03:25;;;;;;;12.57;8.67;;;1.80;99.90;;;;;;5025033;28;20424;-72
2021/03/25 00:05:54;;;;;;;10.33;7.63;;;1.80;99.90;;;;;;5055161;28;20435;-73
2021/03/25 00:08:24;;;;;;;11.00;8.07;;;1.80;99.90;;;;;;5057668;28;20440;-72
2021/03/25 00:10:52;;;;;;;10.57;7.70;;;1.70;99.90;;;;;;5040128;28;20448;-73
2021/03/25 00:13:20;;;;;;;13.33;7.67;;;1.70;99.90;;;;;;5056632;28;20489;-73
2021/03/25 00:15:48;;;;;;;9.13;7.00;;;1.70;99.90;;;;;;5055987;28;20507;-73
2021/03/25 00:18:17;;;;;;;16.30;9.77;;;1.60;99.90;;;;;;5038814;28;20431;-72
2021/03/25 00:20:50;;;;;;;11.93;8.17;;;1.60;99.90;;;;;;5038657;28;20641;-72
2021/03/25 00:23:18;;;;;;;10.70;8.57;;;1.60;99.90;;;;;;5051951;28;20423;-72
2021/03/25 00:25:47;;;;;;;14.53;10.17;;;1.50;99.90;;;;;;5040745;28;20447;-72
2021/03/25 00:28:19;;;;;;;9.93;8.47;;;1.50;99.90;;;;;;5021155;28;21075;-72
2021/03/25 00:30:47;;;;;;;10.57;7.77;;;1.50;99.90;;;;;;5037105;28;20472;-72
2021/03/25 00:33:18;;;;;;;12.73;8.43;;;1.50;99.90;;;;;;5037468;28;20942;-72
2021/03/25 00:35:49;;;;;;;10.67;8.60;;;1.40;99.90;;;;;;5039099;28;20514;-72
2021/03/25 00:38:18;;;;;;;13.60;10.00;;;1.40;99.90;;;;;;5038744;28;20446;-75
2021/03/25 00:40:48;;;;;;;16.03;9.30;;;1.30;99.90;;;;;;5020460;28;20498;-71
2021/03/25 00:43:19;;;;;;;10.40;7.97;;;1.30;99.90;;;;;;5019647;28;20970;-72
2021/03/25 00:45:48;;;;;;;17.57;9.30;;;1.20;99.90;;;;;;5037268;28;20483;-73
2021/03/25 00:51:11;;;;;;;12.00;7.70;;;1.20;99.90;;;;;;5020414;28;20504;-72
2021/03/25 00:53:38;;;;;;;9.60;7.33;;;1.20;99.90;;;;;;5021450;28;20468;-73
2021/03/25 00:56:08;;;;;;;13.00;8.83;;;1.20;99.90;;;;;;5022265;28;20432;-72
2021/03/25 00:58:38;;;;;;;10.87;7.83;;;1.10;99.90;;;;;;5020986;28;20494;-75
2021/03/25 01:01:08;;;;;;;12.50;8.67;;;1.10;99.90;;;;;;5018973;28;21033;-72
2021/03/25 01:03:38;;;;;;;11.20;8.57;;;1.00;99.90;;;;;;5038922;28;20430;-72
2021/03/25 01:06:06;;;;;;;13.77;9.40;;;1.00;99.90;;;;;;5020957;28;20454;-72
2021/03/25 01:08:35;;;;;;;13.83;8.33;;;1.10;99.90;;;;;;5021420;28;20427;-72
2021/03/25 01:11:14;;;;;;;12.63;8.70;;;1.10;99.90;;;;;;5038839;28;20461;-72
2021/03/25 01:13:44;;;;;;;10.20;7.70;;;1.00;99.90;;;;;;5030577;28;20516;-72
2021/03/25 01:16:16;;;;;;;14.10;9.20;;;0.90;99.90;;;;;;5015561;28;20885;-72
2021/03/25 01:18:44;;;;;;;12.93;8.07;;;0.90;99.90;;;;;;5021504;28;20485;-72
2021/03/25 01:21:13;;;;;;;12.43;7.63;;;0.90;99.90;;;;;;5021180;28;21045;-72
2021/03/25 01:23:44;;;;;;;11.33;7.77;;;0.80;99.90;;;;;;5004049;28;20542;-72
2021/03/25 01:26:11;;;;;;;12.93;10.20;;;0.80;99.90;;;;;;5004143;28;20471;-72
2021/03/25 01:28:41;;;;;;;13.83;9.10;;;0.80;99.90;;;;;;5020270;28;20467;-72
2021/03/25 01:31:11;;;;;;;13.00;9.57;;;0.70;99.90;;;;;;5019399;28;20478;-73
2021/03/25 01:33:39;;;;;;;16.20;10.00;;;0.70;99.90;;;;;;5020229;28;20436;-75
2021/03/25 01:36:08;;;;;;;16.43;8.77;;;0.70;99.90;;;;;;5038174;28;20440;-75
2021/03/25 01:38:37;;;;;;;15.33;9.87;;;0.70;99.90;;;;;;5020198;28;20457;-75
2021/03/25 01:41:30;;;;;;;14.93;9.00;;;0.60;99.90;;;;;;5019768;28;20912;-75
2021/03/25 01:44:02;;;;;;;14.70;8.63;;;0.60;99.90;;;;;;5003323;28;20482;-73
2021/03/25 01:46:35;;;;;;;16.73;10.37;;;0.60;99.90;;;;;;5002902;28;20514;-72
2021/03/25 01:49:09;;;;;;;12.63;8.63;;;0.70;99.90;;;;;;5003657;28;20529;-72
2021/03/25 01:51:52;;;;;;;15.67;10.40;;;0.70;99.90;;;;;;5020171;28;20466;-74
2021/03/25 01:54:53;;;;;;;15.03;8.60;;;0.70;99.90;;;;;;5003005;28;20522;-73
2021/03/25 01:57:54;;;;;;;11.33;8.87;;;0.70;99.90;;;;;;4992047;28;20453;-72
2021/03/25 02:00:33;;;;;;;18.97;10.83;;;0.60;99.90;;;;;;5019297;28;20427;-72
2021/03/25 02:03:30;;;;;;;14.40;8.60;;;0.60;99.90;;;;;;5037429;28;20438;-72
2021/03/25 02:06:12;;;;;;;16.27;9.73;;;0.50;99.90;;;;;;5004112;28;20440;-71
2021/03/25 02:08:55;;;;;;;13.83;9.10;;;0.50;99.90;;;;;;5026388;28;20438;-73
2021/03/25 02:11:43;;;;;;;15.60;9.77;;;0.50;99.90;;;;;;5036082;28;20446;-72
2021/03/25 02:14:18;;;;;;;14.67;10.47;;;0.50;99.90;;;;;;5028822;28;20435;-72
2021/03/25 02:16:57;;;;;;;14.70;9.70;;;0.40;99.90;;;;;;5032060;28;20606;-72
2021/03/25 02:20:10;;;;;;;14.33;10.17;;;0.40;99.90;;;;;;5042575;28;20526;-72
2021/03/25 02:23:01;;;;;;;13.23;9.80;;;0.30;99.90;;;;;;5005695;28;20447;-72
2021/03/25 02:25:35;;;;;;;18.20;10.87;;;0.30;99.90;;;;;;5021552;28;20495;-75
2021/03/25 02:28:32;;;;;;;13.67;10.00;;;0.20;99.90;;;;;;5021054;28;20467;-74
2021/03/25 02:31:10;;;;;;;16.30;10.17;;;0.20;99.90;;;;;;5017016;28;20517;-73
2021/03/25 02:33:49;;;;;;;24.33;11.10;;;0.20;99.90;;;;;;5004784;28;20927;-73
2021/03/25 02:36:24;;;;;;;15.03;10.50;;;0.20;99.90;;;;;;5021058;28;20460;-72
2021/03/25 02:38:59;;;;;;;15.00;9.50;;;0.20;99.90;;;;;;5002601;28;20877;-71
2021/03/25 02:41:33;;;;;;;19.83;11.50;;;0.10;99.90;;;;;;5004189;28;20412;-72
2021/03/25 02:44:07;;;;;;;15.50;10.70;;;0.20;99.90;;;;;;5003765;28;20508;-72
2021/03/25 02:46:40;;;;;;;19.10;11.40;;;0.10;99.90;;;;;;5003940;28;20493;-73
2021/03/25 02:49:15;;;;;;;15.00;9.63;;;0.10;99.90;;;;;;5005523;28;20443;-73
2021/03/25 02:51:49;;;;;;;18.40;10.90;;;0.10;99.90;;;;;;4987117;28;20440;-71
2021/03/25 02:54:17;;;;;;;17.87;10.03;;;0.10;99.90;;;;;;5003734;28;20953;-72
2021/03/25 02:56:48;;;;;;;19.83;10.70;;;0.10;99.90;;;;;;5004385;28;20443;-72
2021/03/25 02:59:25;;;;;;;14.77;10.43;;;0.10;99.90;;;;;;5005799;28;21122;-73
2021/03/25 03:01:59;;;;;;;13.83;9.00;;;0.10;99.90;;;;;;5007855;28;20893;-72
2021/03/25 03:04:35;;;;;;;15.30;10.37;;;0.10;99.90;;;;;;4992118;28;20800;-71
2021/03/25 03:07:11;;;;;;;13.23;9.97;;;0.00;99.90;;;;;;5007269;28;20468;-71
2021/03/25 03:09:53;;;;;;;20.60;10.40;;;0.10;99.90;;;;;;5004526;28;20432;-71
2021/03/25 03:12:45;;;;;;;17.67;10.33;;;0.10;99.90;;;;;;5007258;28;20522;-73
2021/03/25 03:15:21;;;;;;;14.77;9.97;;;0.00;99.90;;;;;;5003402;28;20444;-72
2021/03/25 03:17:57;;;;;;;15.00;10.13;;;0.00;99.90;;;;;;4987879;28;20447;-72
2021/03/25 03:20:48;;;;;;;16.90;10.80;;;0.00;99.90;;;;;;5004365;28;20436;-72
2021/03/25 03:23:46;;;;;;;19.27;10.63;;;0.00;99.90;;;;;;5022725;28;20448;-73
2021/03/25 03:26:20;;;;;;;21.70;12.10;;;0.00;99.90;;;;;;5022074;28;20432;-72
2021/03/25 03:28:51;;;;;;;17.60;10.20;;;0.00;99.90;;;;;;5021650;28;20456;-72
2021/03/25 03:31:39;;;;;;;16.77;11.33;;;0.10;99.90;;;;;;5038062;28;20533;-74
2021/03/25 03:34:18;;;;;;;18.13;9.40;;;0.00;99.90;;;;;;5020420;28;20460;-74
2021/03/25 03:36:49;;;;;;;16.30;9.87;;;0.00;99.90;;;;;;5018820;28;20436;-72
2021/03/25 03:39:23;;;;;;;16.20;11.40;;;0.00;99.90;;;;;;5018083;28;20448;-72
2021/03/25 03:41:58;;;;;;;22.27;10.73;;;0.00;99.90;;;;;;5010082;28;20420;-72
2021/03/25 03:44:30;;;;;;;15.73;10.10;;;0.00;99.90;;;;;;4988199;28;20483;-73
2021/03/25 03:46:59;;;;;;;16.80;10.10;;;0.00;99.90;;;;;;5002112;28;20491;-72
2021/03/25 03:49:36;;;;;;;19.27;11.40;;;0.00;99.90;;;;;;5003564;28;20448;-73
2021/03/25 03:52:09;;;;;;;19.17;12.00;;;0.00;99.90;;;;;;5002795;28;20428;-72
2021/03/25 03:54:41;;;;;;;24.30;11.20;;;0.00;99.90;;;;;;5002701;28;20432;-75
2021/03/25 03:57:17;;;;;;;19.03;12.40;;;-0.10;99.90;;;;;;5002386;28;20442;-72
2021/03/25 03:59:57;;;;;;;16.90;10.10;;;-0.10;99.90;;;;;;5009836;28;20468;-72
2021/03/25 04:02:35;;;;;;;18.00;12.00;;;-0.10;99.90;;;;;;5016632;28;20491;-72
2021/03/25 04:05:15;;;;;;;21.43;11.20;;;-0.10;99.90;;;;;;5004174;28;20432;-72
2021/03/25 04:08:03;;;;;;;20.53;11.40;;;-0.10;99.90;;;;;;4984994;28;20507;-73
2021/03/25 04:10:55;;;;;;;18.50;11.60;;;-0.10;99.90;;;;;;5003090;28;20458;-72
2021/03/25 04:13:28;;;;;;;21.33;13.90;;;-0.10;99.90;;;;;;5019949;28;20436;-72
2021/03/25 04:15:57;;;;;;;21.57;13.23;;;0.00;99.90;;;;;;5018820;28;20894;-72
2021/03/25 04:18:36;;;;;;;18.80;12.47;;;-0.10;99.90;;;;;;5019257;28;20443;-73
2021/03/25 04:21:29;;;;;;;18.93;12.30;;;-0.10;99.90;;;;;;5008658;28;20944;-72
2021/03/25 04:24:07;;;;;;;20.17;13.23;;;-0.10;99.90;;;;;;5020452;28;20912;-72
2021/03/25 04:26:42;;;;;;;16.43;10.80;;;-0.10;99.90;;;;;;5002794;28;20436;-72
2021/03/25 04:29:15;;;;;;;22.37;12.50;;;-0.10;99.90;;;;;;5020116;28;20455;-73
2021/03/25 04:31:44;;;;;;;23.23;13.20;;;-0.10;99.90;;;;;;5032735;28;20470;-72
2021/03/25 04:34:11;;;;;;;21.80;12.30;;;-0.10;99.90;;;;;;5039781;28;20428;-72
2021/03/25 04:36:43;;;;;;;25.30;14.27;;;-0.10;99.90;;;;;;5025839;28;20439;-71
2021/03/25 04:39:15;;;;;;;19.33;12.07;;;-0.20;99.90;;;;;;5042012;28;20523;-72
2021/03/25 04:41:45;;;;;;;18.83;10.20;;;-0.20;99.90;;;;;;5026275;28;20969;-72
2021/03/25 04:44:37;;;;;;;24.00;12.23;;;-0.10;99.90;;;;;;5042622;28;20439;-72
2021/03/25 04:47:13;;;;;;;23.13;13.23;;;-0.10;99.90;;;;;;5038643;28;20514;-74
2021/03/25 04:49:44;;;;;;;19.40;13.67;;;-0.10;99.90;;;;;;5026889;28;20435;-72
2021/03/25 04:52:19;;;;;;;19.90;12.30;;;-0.10;99.90;;;;;;5024546;28;20415;-71
2021/03/25 04:54:46;;;;;;;21.33;11.90;;;-0.10;99.90;;;;;;5027027;28;20546;-73
2021/03/25 04:57:25;;;;;;;19.77;13.20;;;-0.10;99.90;;;;;;5044344;28;20462;-71
2021/03/25 04:59:54;;;;;;;21.83;14.40;;;-0.10;99.90;;;;;;5026727;28;20471;-71
2021/03/25 05:02:23;;;;;;;22.93;11.27;;;-0.10;99.90;;;;;;5040929;28;20460;-72
2021/03/25 05:04:55;;;;;;;19.93;12.33;;;-0.10;99.90;;;;;;5026451;28;20436;-71
2021/03/25 05:07:28;;;;;;;19.77;14.40;;;-0.20;99.90;;;;;;5044153;28;20477;-72
2021/03/25 05:10:00;;;;;;;25.87;12.53;;;-0.20;99.90;;;;;;5043731;28;20861;-71
2021/03/25 05:12:28;;;;;;;18.13;11.07;;;-0.20;99.90;;;;;;5043702;28;20432;-72
2021/03/25 05:15:05;;;;;;;17.23;11.90;;;-0.20;99.90;;;;;;5025954;28;20436;-72
2021/03/25 05:17:46;;;;;;;22.97;13.37;;;-0.20;99.90;;;;;;5025833;28;20483;-72
2021/03/25 05:20:20;;;;;;;18.97;11.37;;;-0.10;99.90;;;;;;5023473;28;20423;-71
2021/03/25 05:23:05;;;;;;;19.00;12.60;;;0.00;99.90;;;;;;5006433;28;20466;-72
2021/03/25 05:25:38;;;;;;;22.40;11.90;;;0.00;99.90;;;;;;5023559;28;20534;-74
2021/03/25 05:28:14;;;;;;;21.10;13.70;;;0.10;99.90;;;;;;5042537;28;20477;-72
2021/03/25 05:30:46;;;;;;;22.17;12.60;;;0.20;99.90;;;;;;5024296;28;20470;-73
2021/03/25 05:33:21;;;;;;;18.47;12.13;;;0.20;99.90;;;;;;5008204;28;20443;-72
2021/03/25 05:35:55;;;;;;;20.40;11.90;;;0.30;99.90;;;;;;5040639;28;20443;-72
2021/03/25 05:38:25;;;;;;;19.40;12.70;;;0.50;99.90;;;;;;5025082;28;20443;-74
2021/03/25 05:40:56;;;;;;;18.30;11.27;;;0.60;99.90;;;;;;5024828;28;20451;-72
2021/03/25 05:43:59;;;;;;;22.50;11.20;;;0.60;99.90;;;;;;5024560;28;20504;-75
2021/03/25 05:46:37;;;;;;;22.57;10.63;;;0.60;99.90;;;;;;5040670;28;20475;-72
2021/03/25 05:49:29;;;;;;;15.30;10.87;;;0.70;99.90;;;;;;5007511;28;20487;-72
2021/03/25 05:52:07;;;;;;;17.77;11.90;;;0.90;99.90;;;;;;5023097;28;20442;-72
2021/03/25 05:54:49;;;;;;;12.83;9.37;;;1.00;99.90;;;;;;5040654;28;20431;-72
2021/03/25 05:57:26;;;;;;;17.07;11.37;;;1.40;99.90;;;;;;5022450;28;20431;-74
2021/03/25 06:00:08;;;;;;;14.73;9.57;;;1.90;99.90;;;;;;5006304;28;20487;-75
2021/03/25 06:02:45;;;;;;;13.63;9.53;;;2.40;99.90;;;;;;5022183;28;20474;-75
2021/03/25 06:05:14;;;;;;;13.57;7.93;;;2.70;99.90;;;;;;5007800;28;20493;-77
2021/03/25 06:08:17;;;;;;;19.63;10.30;;;2.80;99.90;;;;;;5021554;28;20978;-73
2021/03/25 06:14:14;;;;;;;12.37;9.50;;;3.00;99.90;;;;;;5042450;28;20863;-74
2021/03/25 06:17:07;;;;;;;15.57;9.97;;;3.60;99.90;;;;;;5019973;28;20475;-72
2021/03/25 06:20:31;;;;;;;14.83;9.87;;;4.30;99.90;;;;;;5038098;28;20431;-72
2021/03/25 06:23:25;;;;;;;13.90;10.20;;;4.90;99.90;;;;;;5031984;28;20467;-73
2021/03/25 06:26:11;;;;;;;15.87;9.77;;;5.70;99.90;;;;;;5036243;28;20440;-73
2021/03/25 06:28:43;;;;;;;40.80;29.80;;;6.20;99.90;;;;;;5018397;28;20799;-73
2021/03/25 06:31:22;;;;;;;17.93;11.97;;;6.20;99.90;;;;;;5015646;28;20573;-72
2021/03/25 06:33:59;;;;;;;26.10;14.83;;;6.40;99.90;;;;;;5017636;28;20430;-73
2021/03/25 06:36:44;;;;;;;18.57;9.83;;;6.90;99.90;;;;;;5034027;28;20435;-73
2021/03/25 06:39:36;;;;;;;14.03;8.80;;;7.00;99.90;;;;;;5050787;28;20430;-75
2021/03/25 06:42:25;;;;;;;13.50;9.83;;;7.10;99.90;;;;;;5047022;28;20547;-72
2021/03/25 06:45:21;;;;;;;13.93;9.87;;;7.30;99.90;;;;;;5032329;28;20408;-73
2021/03/25 06:47:58;;;;;;;14.50;9.57;;;7.30;99.90;;;;;;5005091;28;20978;-73
2021/03/25 06:50:31;;;;;;;11.33;8.80;;;7.40;99.90;;;;;;5023368;28;20489;-76
2021/03/25 06:53:09;;;;;;;16.70;9.77;;;7.50;99.90;;;;;;5028253;28;20446;-73
2021/03/25 06:55:38;;;;;;;16.93;11.23;;;7.80;99.90;;;;;;5027794;28;20426;-74
2021/03/25 06:58:13;;;;;;;14.87;9.83;;;8.20;99.90;;;;;;5017831;28;20440;-74
2021/03/25 07:00:56;;;;;;;16.60;9.80;;;8.30;99.60;;;;;;5018634;28;20490;-73
2021/03/25 07:03:25;;;;;;;16.07;9.73;;;8.50;99.30;;;;;;5034193;28;20804;-75
2021/03/25 07:05:54;;;;;;;16.27;10.33;;;8.40;99.20;;;;;;5018448;28;20406;-73
2021/03/25 07:08:25;;;;;;;16.63;11.90;;;8.60;98.90;;;;;;5016954;28;20463;-72
2021/03/25 07:10:56;;;;;;;19.70;11.93;;;8.90;98.60;;;;;;5017485;28;20431;-72
2021/03/25 07:13:34;;;;;;;15.10;11.27;;;8.80;98.10;;;;;;5017554;28;20577;-72
2021/03/25 07:16:02;;;;;;;15.87;11.83;;;10.00;96.50;;;;;;5028239;28;20486;-72
2021/03/25 07:18:38;;;;;;;20.43;12.97;;;11.00;94.80;;;;;;5013112;28;20407;-73
2021/03/25 07:21:34;;;;;;;21.93;12.10;;;10.80;94.00;;;;;;5012253;28;20799;-72
2021/03/25 07:24:07;;;;;;;18.60;10.60;;;12.30;91.70;;;;;;5013195;28;20448;-74
2021/03/25 07:26:41;;;;;;;22.27;11.50;;;11.60;91.50;;;;;;5012054;28;20441;-73
2021/03/25 07:29:33;;;;;;;22.37;11.47;;;11.50;91.90;;;;;;4996046;28;20528;-72
2021/03/25 07:32:16;;;;;;;23.97;12.10;;;11.80;91.60;;;;;;5010312;28;20517;-77
2021/03/25 07:34:50;;;;;;;13.47;9.90;;;11.40;92.20;;;;;;5011873;28;20861;-74
2021/03/25 07:37:35;;;;;;;18.50;11.07;;;11.90;91.40;;;;;;5011755;28;20486;-73
2021/03/25 07:40:07;;;;;;;18.97;11.00;;;12.00;91.10;;;;;;5012714;28;20467;-71
2021/03/25 07:42:38;;;;;;;22.17;12.67;;;11.80;91.20;;;;;;5013943;28;20435;-73
2021/03/25 07:45:26;;;;;;;18.83;11.77;;;11.90;91.10;;;;;;5015202;28;20522;-72
2021/03/25 07:47:55;;;;;;;16.80;12.80;;;11.90;91.50;;;;;;5016603;28;20495;-72
2021/03/25 07:50:31;;;;;;;18.57;11.67;;;12.50;90.20;;;;;;5015795;28;20454;-72
2021/03/25 07:53:15;;;;;;;14.77;10.80;;;13.00;89.10;;;;;;5016813;28;20426;-72
2021/03/25 07:55:42;;;;;;;13.60;11.27;;;12.30;89.90;;;;;;5015456;28;20451;-76
2021/03/25 07:58:18;;;;;;;16.40;11.40;;;12.50;89.30;;;;;;5016308;28;20479;-73
2021/03/25 08:00:47;;;;;;;18.50;9.97;;;12.80;89.00;;;;;;5017661;28;20478;-72
2021/03/25 08:03:17;;;;;;;17.73;11.33;;;14.40;87.30;;;;;;5036513;28;20442;-72
2021/03/25 08:05:50;;;;;;;14.90;10.60;;;15.60;79.80;;;;;;5003738;28;20439;-75
2021/03/25 08:08:30;;;;;;;19.67;12.33;;;16.50;74.90;;;;;;5038040;28;20466;-71
2021/03/25 08:11:11;;;;;;;19.50;11.47;;;15.00;75.70;;;;;;5003971;28;20985;-71
2021/03/25 08:13:47;;;;;;;15.90;12.23;;;16.30;76.10;;;;;;5039220;28;20457;-72
2021/03/25 08:16:26;;;;;;;16.73;12.70;;;16.60;70.30;;;;;;5036941;28;20982;-76
2021/03/25 08:19:20;;;;;;;21.33;12.03;;;14.90;74.50;;;;;;5038988;28;20443;-74
2021/03/25 08:22:04;;;;;;;16.20;11.83;;;14.70;77.00;;;;;;5021285;28;20853;-76
2021/03/25 08:25:15;;;;;;;19.13;12.87;;;15.00;75.00;;;;;;5020704;28;20431;-75
2021/03/25 08:28:07;;;;;;;15.17;12.23;;;15.60;74.20;;;;;;4995117;28;20466;-71
2021/03/25 08:30:50;;;;;;;15.63;11.60;;;16.00;72.20;;;;;;5020505;28;20891;-75
2021/03/25 08:33:27;;;;;;;18.00;12.87;;;16.20;71.10;;;;;;5038571;28;20773;-72
2021/03/25 08:36:01;;;;;;;18.30;12.13;;;15.60;70.60;;;;;;5021093;28;20447;-72
2021/03/25 08:38:53;;;;;;;16.50;12.53;;;15.60;71.60;;;;;;5020110;28;20862;-71
2021/03/25 08:41:27;;;;;;;15.48;12.32;;;15.80;71.10;;;;;;5037781;28;20488;-72
2021/03/25 08:44:02;;;;;;;16.13;12.50;;;16.20;69.70;;;;;;5003900;28;20480;-71
2021/03/25 08:46:51;;;;;;;18.93;12.10;;;17.50;68.60;;;;;;5019640;28;20499;-70
2021/03/25 08:52:57;;;;;;;18.30;10.37;;;18.50;64.00;;;;;;4996819;28;20441;-71
2021/03/25 08:55:28;;;;;;;20.50;12.50;;;21.00;58.80;;;;;;4995199;28;20795;-72
2021/03/25 08:58:01;;;;;;;19.65;13.90;;;21.10;53.40;;;;;;4980286;28;20418;-71
2021/03/25 09:00:33;;;;;;;20.83;13.40;;;19.50;55.50;;;;;;4990813;28;20463;-72
2021/03/25 09:03:06;;;;;;;19.90;13.93;;;19.70;56.20;;;;;;4976062;28;20436;-76
2021/03/25 09:05:39;;;;;;;15.53;12.07;;;19.80;55.00;;;;;;4960892;28;20433;-75
2021/03/25 09:08:13;;;;;;;17.90;10.80;;;19.30;54.80;;;;;;4944168;28;20474;-72
2021/03/25 09:10:51;;;;;;;16.27;11.60;;;19.70;55.00;;;;;;4990336;28;20517;-74
2021/03/25 09:13:21;;;;;;;17.57;12.07;;;20.20;53.60;;;;;;4998013;28;20452;-72
2021/03/25 09:15:51;;;;;;;18.50;11.60;;;21.00;52.10;;;;;;4995730;28;20487;-74
2021/03/25 09:18:22;;;;;;;20.27;12.63;;;22.50;51.60;;;;;;4997173;28;20977;-73
2021/03/25 09:21:10;;;;;;;21.27;11.27;;;21.20;49.60;;;;;;4996773;28;20440;-71
2021/03/25 09:24:01;;;;;;;19.77;12.33;;;20.10;52.00;;;;;;4997472;28;20441;-77
2021/03/25 09:27:03;;;;;;;15.23;10.20;;;22.00;50.70;;;;;;4996731;28;20433;-72
2021/03/25 09:30:16;;;;;;;14.97;10.70;;;22.80;47.80;;;;;;4996274;28;20492;-72
2021/03/25 09:32:44;;;;;;;13.00;9.93;;;23.10;47.90;;;;;;4998100;28;20444;-70
2021/03/25 09:35:36;;;;;;;13.53;9.40;;;24.30;46.40;;;;;;4997574;28;20536;-71
2021/03/25 09:38:05;;;;;;;12.47;9.80;;;26.10;43.00;;;;;;4996174;28;20429;-71
2021/03/25 09:40:45;;;;;;;14.87;8.20;;;26.30;41.00;;;;;;4978902;28;20556;-71
2021/03/25 09:43:29;;;;;;;12.70;8.50;;;26.10;40.10;;;;;;4994746;28;20429;-72
2021/03/25 09:46:18;;;;;;;11.57;8.93;;;24.50;40.80;;;;;;4995255;28;20480;-73
2021/03/25 09:48:46;;;;;;;9.13;7.73;;;23.30;41.40;;;;;;4996895;28;20898;-70
2021/03/25 09:51:21;;;;;;;11.23;8.90;;;23.40;45.00;;;;;;4997359;28;20537;-71
2021/03/25 09:53:52;;;;;;;13.53;9.27;;;23.70;42.50;;;;;;4978588;28;20445;-70
2021/03/25 09:56:32;;;;;;;11.50;8.43;;;25.20;42.10;;;;;;4996132;28;20434;-71
2021/03/25 09:59:26;;;;;;;12.40;9.80;;;26.70;39.40;;;;;;4994454;28;20476;-70
2021/03/25 10:01:54;;;;;;;9.50;8.50;;;24.80;41.00;;;;;;4977330;28;20491;-76
2021/03/25 10:04:34;;;;;;;13.77;8.80;;;25.30;40.90;;;;;;4994089;28;20452;-70
2021/03/25 10:07:25;;;;;;;10.43;8.57;;;25.20;40.70;;;;;;4993100;28;20433;-70
2021/03/25 10:10:01;;;;;;;12.27;9.63;;;23.70;41.60;;;;;;4994295;28;20460;-70
2021/03/25 10:12:52;;;;;;;12.27;9.47;;;23.40;43.80;;;;;;4994969;28;20808;-70
2021/03/25 10:15:47;;;;;;;12.93;9.00;;;24.80;40.80;;;;;;4977138;28;20472;-69
2021/03/25 10:18:47;;;;;;;13.40;9.20;;;22.20;44.20;;;;;;4991884;28;20449;-77
2021/03/25 10:21:18;;;;;;;14.17;9.83;;;23.40;43.70;;;;;;4995501;28;20433;-70
2021/03/25 10:24:08;;;;;;;17.00;10.17;;;22.30;44.80;;;;;;4994956;28;20512;-74
2021/03/25 10:26:41;;;;;;;19.97;8.33;;;21.90;45.10;;;;;;4996860;28;20488;-71
2021/03/25 10:29:17;;;;;;;13.53;9.10;;;20.80;46.00;;;;;;4995499;28;20472;-72
2021/03/25 10:31:48;;;;;;;12.83;8.40;;;21.30;44.30;;;;;;4996222;28;20477;-72
2021/03/25 10:34:22;;;;;;;14.93;8.53;;;21.40;44.60;;;;;;4996287;28;20504;-74
2021/03/25 10:37:03;;;;;;;11.27;8.73;;;20.70;43.00;;;;;;4995018;28;20987;-73
2021/03/25 10:39:36;;;;;;;12.77;9.63;;;20.50;44.50;;;;;;4994909;28;20528;-75
2021/03/25 10:42:23;;;;;;;16.07;9.33;;;20.40;45.70;;;;;;4978746;28;20444;-70
2021/03/25 10:44:51;;;;;;;15.10;9.63;;;20.40;45.00;;;;;;4995108;28;20429;-71
2021/03/25 10:47:22;;;;;;;14.10;9.53;;;21.40;45.40;;;;;;4993850;28;20596;-75
2021/03/25 10:49:54;;;;;;;10.80;8.50;;;22.30;42.50;;;;;;4995099;28;20539;-71
2021/03/25 10:52:26;;;;;;;10.73;7.60;;;22.20;40.90;;;;;;4995218;28;20484;-74
2021/03/25 10:54:58;;;;;;;13.70;8.80;;;22.00;42.20;;;;;;4995645;28;20429;-70
2021/03/25 10:57:28;;;;;;;12.60;9.07;;;23.50;40.90;;;;;;4995445;28;20468;-70
2021/03/25 11:00:01;;;;;;;12.67;7.53;;;24.00;39.60;;;;;;5010584;28;20468;-70
2021/03/25 11:02:34;;;;;;;13.50;10.60;;;23.50;40.90;;;;;;5014959;28;20476;-74
2021/03/25 11:05:07;;;;;;;13.20;8.80;;;22.10;42.40;;;;;;5015712;28;20944;-71
2021/03/25 11:07:41;;;;;;;19.33;10.63;;;21.00;44.50;;;;;;5016047;28;20440;-71
2021/03/25 11:10:19;;;;;;;16.90;9.73;;;21.30;44.80;;;;;;5015836;28;20428;-76
2021/03/25 11:12:56;;;;;;;14.00;9.33;;;20.30;45.00;;;;;;4998041;28;20440;-70
2021/03/25 11:15:31;;;;;;;12.23;8.77;;;20.70;45.70;;;;;;4997176;28;20432;-70
2021/03/25 11:18:02;;;;;;;14.40;8.60;;;20.80;45.30;;;;;;5000642;28;20444;-70
2021/03/25 11:20:30;;;;;;;13.10;7.97;;;19.90;45.80;;;;;;4985980;28;20459;-71
2021/03/25 11:22:58;;;;;;;12.13;8.27;;;21.20;45.40;;;;;;5019589;28;20439;-69
2021/03/25 11:25:29;;;;;;;13.40;7.90;;;21.50;43.70;;;;;;5001697;28;20424;-70
2021/03/25 11:28:04;;;;;;;10.33;8.10;;;22.60;43.00;;;;;;5001979;28;20451;-71
2021/03/25 11:30:37;;;;;;;10.63;7.60;;;21.80;41.90;;;;;;5001253;28;20440;-72
2021/03/25 11:33:25;;;;;;;15.70;8.40;;;21.30;44.60;;;;;;5001796;28;20443;-76
2021/03/25 11:35:53;;;;;;;12.77;8.07;;;22.50;43.30;;;;;;5019263;28;21010;-70
2021/03/25 11:38:32;;;;;;;12.50;8.90;;;23.10;42.40;;;;;;5001002;28;20466;-71
2021/03/25 11:41:04;;;;;;;16.20;7.80;;;22.90;42.40;;;;;;5018350;28;20471;-77
2021/03/25 11:43:52;;;;;;;14.10;8.80;;;23.90;40.80;;;;;;5017225;28;20424;-70
2021/03/25 11:46:31;;;;;;;16.00;9.00;;;22.90;39.60;;;;;;5016808;28;20975;-72
2021/03/25 11:49:13;;;;;;;12.87;8.23;;;21.30;42.70;;;;;;5017901;28;20483;-72
2021/03/25 11:51:45;;;;;;;14.70;8.10;;;22.20;43.50;;;;;;5000355;28;20468;-72
2021/03/25 11:54:27;;;;;;;15.40;8.97;;;22.90;43.00;;;;;;5000547;28;20436;-77
2021/03/25 11:56:56;;;;;;;11.93;7.07;;;21.60;42.30;;;;;;5000179;28;20456;-71
2021/03/25 11:59:30;;;;;;;14.23;8.77;;;22.50;43.50;;;;;;4980708;28;20473;-75
2021/03/25 12:02:28;;;;;;;12.33;7.37;;;23.10;41.60;;;;;;4995586;28;20480;-71
2021/03/25 12:04:57;;;;;;;9.50;7.63;;;22.30;40.50;;;;;;4998738;28;20429;-76
2021/03/25 12:07:26;;;;;;;14.70;8.47;;;22.70;41.50;;;;;;4996565;28;20848;-71
2021/03/25 12:10:05;;;;;;;13.60;8.43;;;21.50;43.10;;;;;;4997335;28;20488;-70
2021/03/25 12:12:33;;;;;;;12.57;7.90;;;23.70;41.80;;;;;;4995697;28;20940;-68
2021/03/25 12:15:02;;;;;;;12.90;7.73;;;24.20;39.90;;;;;;4997015;28;20421;-69
2021/03/25 12:17:30;;;;;;;10.40;8.37;;;25.00;38.50;;;;;;4997704;28;20972;-69
2021/03/25 12:19:59;;;;;;;11.80;8.83;;;23.60;38.20;;;;;;4998227;28;20525;-70
2021/03/25 12:22:30;;;;;;;12.73;9.20;;;22.80;38.60;;;;;;4980879;28;20436;-75
2021/03/25 12:24:59;;;;;;;13.77;8.73;;;21.80;39.90;;;;;;4998605;28;20483;-70
2021/03/25 12:27:29;;;;;;;12.60;8.60;;;23.20;40.50;;;;;;4998542;28;20433;-70
2021/03/25 12:29:58;;;;;;;11.03;6.83;;;25.00;39.90;;;;;;4997419;28;20492;-75
2021/03/25 12:32:31;;;;;;;9.13;6.30;;;23.60;39.30;;;;;;4997980;28;20480;-72
2021/03/25 12:35:09;;;;;;;12.27;7.67;;;24.40;39.20;;;;;;5013252;28;20437;-70
2021/03/25 12:37:37;;;;;;;9.57;7.23;;;22.40;40.20;;;;;;4998524;28;20446;-73
2021/03/25 12:40:06;;;;;;;11.23;8.17;;;23.30;40.00;;;;;;4997521;28;20429;-70
2021/03/25 12:42:35;;;;;;;8.23;6.10;;;23.00;41.00;;;;;;5013866;28;20433;-68
2021/03/25 12:45:05;;;;;;;10.83;5.30;;;23.60;39.90;;;;;;4981668;28;20468;-70
2021/03/25 12:47:33;;;;;;;9.70;5.73;;;23.10;39.70;;;;;;4998243;28;20480;-70
2021/03/25 12:50:08;;;;;;;9.53;5.43;;;22.50;40.30;;;;;;4999138;28;20485;-71
2021/03/25 12:52:37;;;;;;;8.10;4.60;;;21.90;40.60;;;;;;4999593;28;20464;-70
2021/03/25 12:55:06;;;;;;;6.97;5.03;;;21.80;40.60;;;;;;4999576;28;20808;-71
2021/03/25 12:57:33;;;;;;;10.60;5.03;;;20.80;41.20;;;;;;4999264;28;20504;-71
2021/03/25 13:00:02;;;;;;;9.10;4.67;;;21.00;41.30;;;;;;5014839;28;20460;-71
2021/03/25 13:02:30;;;;;;;7.23;4.63;;;21.40;40.90;;;;;;5018415;28;20472;-72
2021/03/25 13:04:59;;;;;;;7.40;5.37;;;21.10;41.30;;;;;;5001349;28;20467;-70
2021/03/25 13:07:26;;;;;;;8.03;4.90;;;21.30;41.50;;;;;;5019054;28;20490;-76
2021/03/25 13:09:54;;;;;;;7.37;4.30;;;20.80;40.50;;;;;;5018742;28;20468;-71
2021/03/25 13:12:25;;;;;;;5.47;3.60;;;20.70;41.20;;;;;;5000761;28;20431;-71
2021/03/25 13:14:54;;;;;;;5.17;3.70;;;21.50;41.10;;;;;;5018176;28;20447;-71
2021/03/25 13:20:32;;;;;;;9.70;5.20;;;21.50;41.00;;;;;;5008535;28;20439;-71
2021/03/25 13:23:01;;;;;;;8.20;4.93;;;19.90;43.40;;;;;;5001946;28;20451;-74
2021/03/25 13:25:31;;;;;;;6.50;4.47;;;18.90;44.40;;;;;;4986179;28;20523;-72
2021/03/25 13:27:59;;;;;;;6.67;4.60;;;19.30;44.80;;;;;;5003150;28;20464;-70
2021/03/25 13:30:29;;;;;;;6.40;4.40;;;19.40;44.70;;;;;;4997943;28;20562;-71
2021/03/25 13:32:58;;;;;;;7.20;4.93;;;19.50;44.80;;;;;;5018089;28;20447;-74
2021/03/25 13:35:28;;;;;;;6.00;4.13;;;18.70;44.70;;;;;;5000347;28;20447;-78
2021/03/25 13:37:57;;;;;;;5.70;4.10;;;18.90;45.40;;;;;;4999881;28;20444;-73